createdAt,value
2022-10-17T00:00:35.629Z,10.83
2022-10-17T00:03:02.403Z,10.89
2022-10-17T00:05:29.217Z,10.73
2022-10-17T00:07:55.898Z,10.77
2022-10-17T00:10:22.708Z,10.61
2022-10-17T00:12:51.170Z,10.49
2022-10-17T00:15:20.179Z,10.62
2022-10-17T00:17:47.290Z,10.59
2022-10-17T00:20:15.682Z,10.64
2022-10-17T00:22:43.086Z,10.67
2022-10-17T00:25:11.119Z,10.42
2022-10-17T00:27:40.148Z,10.60
2022-10-17T00:30:10.065Z,10.49
2022-10-17T00:32:36.614Z,10.59
2022-10-17T00:35:04.452Z,10.52
2022-10-17T00:37:31.985Z,10.30
2022-10-17T00:39:59.354Z,10.14
2022-10-17T00:42:27.645Z,10.34
2022-10-17T00:44:59.494Z,10.30
2022-10-17T00:47:26.402Z,10.32
2022-10-17T00:49:53.135Z,10.28
2022-10-17T00:52:23.868Z,10.12
2022-10-17T00:55:13.569Z,10.22
2022-10-17T00:57:42.331Z,10.28
2022-10-17T01:00:10.743Z,10.28
2022-10-17T01:02:38.078Z,10.32
2022-10-17T01:05:06.197Z,10.32
2022-10-17T01:07:37.284Z,10.36
2022-10-17T01:10:06.355Z,10.39
2022-10-17T01:12:54.065Z,10.50
2022-10-17T01:15:23.776Z,10.50
2022-10-17T01:17:50.267Z,10.55
2022-10-17T01:20:54.400Z,10.58
2022-10-17T01:23:23.658Z,10.56
2022-10-17T01:26:28.831Z,10.56
2022-10-17T01:29:14.123Z,10.52
2022-10-17T01:31:48.800Z,10.58
2022-10-17T01:34:28.254Z,10.59
2022-10-17T01:37:12.005Z,10.63
2022-10-17T01:39:48.874Z,10.70
2022-10-17T01:42:30.794Z,10.77
2022-10-17T01:45:21.316Z,10.79
2022-10-17T01:47:51.553Z,10.83
2022-10-17T01:50:29.218Z,10.84
2022-10-17T01:53:02.058Z,10.88
2022-10-17T01:55:42.460Z,10.83
2022-10-17T01:58:19.531Z,10.84
2022-10-17T02:00:47.808Z,10.81
2022-10-17T02:03:18.826Z,10.85
2022-10-17T02:05:46.093Z,10.75
2022-10-17T02:08:13.339Z,10.75
2022-10-17T02:11:03.442Z,10.77
2022-10-17T02:13:39.266Z,10.70
2022-10-17T02:16:05.871Z,10.68
2022-10-17T02:19:01.221Z,10.68
2022-10-17T02:21:43.371Z,10.78
2022-10-17T02:24:27.933Z,10.64
2022-10-17T02:27:13.577Z,10.38
2022-10-17T02:29:50.117Z,10.46
2022-10-17T02:32:34.882Z,10.32
2022-10-17T02:35:04.521Z,10.56
2022-10-17T02:37:32.442Z,10.57
2022-10-17T02:40:01.898Z,10.57
2022-10-17T02:42:30.539Z,10.55
2022-10-17T02:45:01.634Z,10.49
2022-10-17T02:47:35.274Z,10.27
2022-10-17T02:50:02.628Z,10.36
2022-10-17T02:53:01.261Z,10.47
2022-10-17T02:55:34.025Z,10.41
2022-10-17T02:58:12.152Z,10.34
2022-10-17T03:00:40.959Z,10.29
2022-10-17T03:03:30.457Z,10.37
2022-10-17T03:06:00.932Z,10.33
2022-10-17T03:08:27.629Z,10.30
2022-10-17T03:10:55.694Z,10.35
2022-10-17T03:13:22.915Z,10.24
2022-10-17T03:15:49.889Z,10.19
2022-10-17T03:18:17.272Z,10.25
2022-10-17T03:20:45.001Z,10.32
2022-10-17T03:23:11.529Z,10.32
2022-10-17T03:25:38.396Z,10.29
2022-10-17T03:28:05.583Z,10.30
2022-10-17T03:30:32.894Z,10.29
2022-10-17T03:33:00.211Z,10.23
2022-10-17T03:35:27.405Z,10.21
2022-10-17T03:37:55.813Z,10.18
2022-10-17T03:40:23.704Z,10.07
2022-10-17T03:42:50.707Z,10.11
2022-10-17T03:45:17.348Z,10.11
2022-10-17T03:47:45.414Z,10.13
2022-10-17T03:50:12.094Z,10.15
2022-10-17T03:52:39.542Z,10.13
2022-10-17T03:55:06.422Z,10.15
2022-10-17T03:57:35.222Z,9.99
2022-10-17T04:00:02.369Z,10.04
2022-10-17T04:02:29.979Z,10.02
2022-10-17T04:04:57.504Z,10.03
2022-10-17T04:07:24.056Z,10.08
2022-10-17T04:09:50.644Z,10.10
2022-10-17T04:12:19.432Z,10.09
2022-10-17T04:14:46.419Z,10.04
2022-10-17T04:17:13.997Z,9.76
2022-10-17T04:19:40.667Z,10.02
2022-10-17T04:22:07.215Z,9.99
2022-10-17T04:24:36.310Z,10.02
2022-10-17T04:27:05.863Z,10.04
2022-10-17T04:29:36.212Z,10.00
2022-10-17T04:32:24.186Z,10.00
2022-10-17T04:35:03.994Z,9.99
2022-10-17T04:37:31.967Z,10.01
2022-10-17T04:40:01.564Z,9.98
2022-10-17T04:42:31.797Z,9.99
2022-10-17T04:44:59.161Z,9.98
2022-10-17T04:47:26.712Z,9.97
2022-10-17T04:49:53.298Z,9.98
2022-10-17T04:52:21.865Z,9.96
2022-10-17T04:54:49.989Z,9.91
2022-10-17T04:57:18.018Z,9.92
2022-10-17T04:59:53.611Z,9.96
2022-10-17T05:02:30.440Z,9.89
2022-10-17T05:04:57.514Z,9.91
2022-10-17T05:07:24.090Z,9.95
2022-10-17T05:10:00.112Z,9.98
2022-10-17T05:12:27.074Z,9.94
2022-10-17T05:14:54.106Z,9.97
2022-10-17T05:17:22.282Z,9.94
2022-10-17T05:19:49.420Z,10.01
2022-10-17T05:22:16.878Z,10.08
2022-10-17T05:24:43.679Z,10.11
2022-10-17T05:27:10.965Z,10.12
2022-10-17T05:29:37.544Z,10.15
2022-10-17T05:32:11.316Z,10.13
2022-10-17T05:34:38.035Z,10.12
2022-10-17T05:37:04.924Z,10.11
2022-10-17T05:39:32.581Z,10.13
2022-10-17T05:41:59.831Z,10.12
2022-10-17T05:44:26.763Z,10.17
2022-10-17T05:46:56.501Z,10.19
2022-10-17T05:49:39.744Z,10.22
2022-10-17T05:52:10.171Z,10.19
2022-10-17T05:54:50.612Z,10.17
2022-10-17T05:57:17.344Z,10.10
2022-10-17T05:59:43.993Z,10.18
2022-10-17T06:02:13.397Z,10.23
2022-10-17T06:04:40.556Z,10.27
2022-10-17T06:07:07.237Z,10.31
2022-10-17T06:09:34.425Z,10.34
2022-10-17T06:12:02.118Z,10.31
2022-10-17T06:14:29.789Z,10.30
2022-10-17T06:17:00.623Z,10.33
2022-10-17T06:19:27.372Z,10.41
2022-10-17T06:21:53.871Z,10.43
2022-10-17T06:24:22.614Z,10.32
2022-10-17T06:26:51.654Z,10.31
2022-10-17T06:29:20.238Z,10.37
2022-10-17T06:31:50.046Z,10.28
2022-10-17T06:34:17.245Z,10.29
2022-10-17T06:36:44.764Z,10.29
2022-10-17T06:39:11.787Z,10.30
2022-10-17T06:41:55.495Z,10.35
2022-10-17T06:44:35.534Z,10.58
2022-10-17T06:47:22.459Z,10.76
2022-10-17T06:49:51.525Z,10.91
2022-10-17T06:52:43.008Z,11.08
2022-10-17T06:55:32.502Z,11.26
2022-10-17T06:58:21.358Z,11.38
2022-10-17T07:01:13.319Z,11.50
2022-10-17T07:03:41.067Z,11.60
2022-10-17T07:06:09.101Z,11.65
2022-10-17T07:08:35.694Z,11.79
2022-10-17T07:11:15.012Z,11.86
2022-10-17T07:13:42.700Z,11.69
2022-10-17T07:16:09.905Z,12.14
2022-10-17T07:18:38.459Z,12.11
2022-10-17T07:21:06.985Z,12.42
2022-10-17T07:23:35.934Z,12.35
2022-10-17T07:26:05.998Z,12.74
2022-10-17T07:28:37.440Z,12.86
2022-10-17T07:31:15.921Z,13.01
2022-10-17T07:33:43.258Z,12.85
2022-10-17T07:36:10.334Z,13.14
2022-10-17T07:38:37.184Z,13.12
2022-10-17T07:41:07.390Z,13.21
2022-10-17T07:43:34.989Z,13.13
2022-10-17T07:46:02.960Z,13.20
2022-10-17T07:48:30.159Z,13.33
2022-10-17T07:50:57.028Z,13.37
2022-10-17T07:53:23.993Z,13.26
2022-10-17T07:55:50.594Z,13.55
2022-10-17T07:58:17.244Z,13.46
2022-10-17T08:00:44.024Z,13.55
2022-10-17T08:03:11.004Z,13.35
2022-10-17T08:05:37.510Z,13.71
2022-10-17T08:08:04.357Z,13.72
2022-10-17T08:10:30.878Z,13.86
2022-10-17T08:12:58.582Z,14.01
2022-10-17T08:15:29.386Z,14.00
2022-10-17T08:17:58.881Z,14.30
2022-10-17T08:20:25.678Z,14.47
2022-10-17T08:22:55.783Z,14.47
2022-10-17T08:25:22.960Z,14.63
2022-10-17T08:27:50.175Z,14.84
2022-10-17T08:30:17.714Z,14.86
2022-10-17T08:32:44.924Z,15.07
2022-10-17T08:35:11.875Z,15.27
2022-10-17T08:37:41.599Z,15.29
2022-10-17T08:40:19.358Z,15.49
2022-10-17T08:43:07.162Z,15.67
2022-10-17T08:45:40.407Z,15.89
2022-10-17T08:48:14.968Z,16.13
2022-10-17T08:50:56.573Z,16.23
2022-10-17T08:53:32.015Z,16.16
2022-10-17T08:56:07.258Z,16.12
2022-10-17T08:58:38.356Z,16.29
2022-10-17T09:01:09.029Z,16.38
2022-10-17T09:04:05.659Z,16.56
2022-10-17T09:06:37.488Z,16.65
2022-10-17T09:09:31.600Z,16.71
2022-10-17T09:11:58.263Z,16.98
2022-10-17T09:14:46.668Z,17.29
2022-10-17T09:17:41.106Z,17.46
2022-10-17T09:20:20.828Z,17.34
2022-10-17T09:25:29.908Z,17.54
2022-10-17T09:28:06.361Z,17.67
2022-10-17T09:30:46.434Z,17.82
2022-10-17T09:33:34.642Z,17.99
2022-10-17T09:36:13.228Z,18.27
2022-10-17T09:38:43.487Z,18.39
2022-10-17T09:41:45.494Z,18.28
2022-10-17T09:44:18.283Z,18.64
2022-10-17T09:47:14.556Z,18.90
2022-10-17T09:49:44.025Z,18.72
2022-10-17T09:52:27.978Z,18.71
2022-10-17T09:55:04.120Z,18.76
2022-10-17T09:57:53.711Z,18.70
2022-10-17T10:00:27.001Z,18.82
2022-10-17T10:03:18.200Z,19.04
2022-10-17T10:06:03.522Z,18.95
2022-10-17T10:08:36.060Z,19.14
2022-10-17T10:11:13.855Z,19.15
2022-10-17T10:13:42.409Z,19.33
2022-10-17T10:16:16.900Z,19.37
2022-10-17T10:18:45.481Z,19.34
2022-10-17T10:21:19.385Z,19.36
2022-10-17T10:24:09.211Z,19.66
2022-10-17T10:26:40.279Z,19.48
2022-10-17T10:29:19.469Z,19.60
2022-10-17T10:31:47.127Z,19.59
2022-10-17T10:34:19.809Z,19.49
2022-10-17T10:36:52.036Z,19.55
2022-10-17T10:39:33.272Z,19.84
2022-10-17T10:42:02.628Z,20.06
2022-10-17T10:44:31.976Z,19.81
2022-10-17T10:47:21.609Z,20.08
2022-10-17T10:49:51.655Z,20.29
2022-10-17T10:52:33.968Z,19.98
2022-10-17T10:55:15.876Z,20.12
2022-10-17T10:57:45.698Z,20.26
2022-10-17T11:00:21.363Z,20.37
2022-10-17T11:02:57.102Z,20.24
2022-10-17T11:05:48.172Z,20.20
2022-10-17T11:08:34.004Z,20.15
2022-10-17T11:11:14.139Z,20.07
2022-10-17T11:13:49.543Z,20.07
2022-10-17T11:16:29.450Z,20.07
2022-10-17T11:19:21.429Z,20.18
2022-10-17T11:22:04.988Z,20.39
2022-10-17T11:24:40.105Z,20.29
2022-10-17T11:27:07.964Z,20.50
2022-10-17T11:29:37.523Z,20.49
2022-10-17T11:32:11.811Z,20.47
2022-10-17T11:34:46.444Z,20.60
2022-10-17T11:37:22.842Z,20.52
2022-10-17T11:40:18.088Z,20.57
2022-10-17T11:42:59.940Z,20.37
2022-10-17T11:45:30.793Z,20.24
2022-10-17T11:48:06.728Z,20.50
2022-10-17T11:53:37.517Z,20.89
2022-10-17T11:56:04.351Z,21.10
2022-10-17T11:58:42.027Z,21.10
2022-10-17T12:01:11.501Z,20.68
2022-10-17T12:03:41.321Z,20.72
2022-10-17T12:06:38.699Z,20.73
2022-10-17T12:09:15.506Z,20.59
2022-10-17T12:11:59.910Z,20.66
2022-10-17T12:14:45.843Z,20.68
2022-10-17T12:17:29.642Z,20.65
2022-10-17T12:20:21.599Z,20.62
2022-10-17T12:22:50.003Z,20.59
2022-10-17T12:25:20.907Z,20.68
2022-10-17T12:27:49.657Z,20.89
2022-10-17T12:30:27.046Z,21.02
2022-10-17T12:33:17.400Z,21.02
2022-10-17T12:35:44.082Z,21.35
2022-10-17T12:38:19.547Z,21.27
2022-10-17T12:40:49.167Z,21.36
2022-10-17T12:43:15.711Z,21.52
2022-10-17T12:46:01.963Z,21.56
2022-10-17T12:48:34.637Z,21.61
2022-10-17T12:51:35.299Z,21.57
2022-10-17T12:54:00.091Z,21.78
2022-10-17T12:56:38.093Z,21.91
2022-10-17T12:59:22.018Z,22.00
2022-10-17T13:02:01.998Z,22.04
2022-10-17T13:04:30.513Z,22.06
2022-10-17T13:06:59.007Z,21.99
2022-10-17T13:09:52.168Z,22.03
2022-10-17T13:12:25.361Z,21.71
2022-10-17T13:14:53.991Z,21.54
2022-10-17T13:17:26.813Z,21.56
2022-10-17T13:19:54.215Z,21.73
2022-10-17T13:22:29.395Z,21.59
2022-10-17T13:25:28.447Z,21.55
2022-10-17T13:28:07.730Z,21.49
2022-10-17T13:30:36.359Z,21.64
2022-10-17T13:33:03.311Z,21.42
2022-10-17T13:35:58.772Z,21.60
2022-10-17T13:38:26.299Z,21.60
2022-10-17T13:41:01.342Z,21.62
2022-10-17T13:43:31.073Z,21.58
2022-10-17T13:46:13.746Z,21.55
2022-10-17T13:48:48.515Z,21.56
2022-10-17T13:51:15.031Z,21.52
2022-10-17T13:53:41.825Z,21.32
2022-10-17T13:56:28.420Z,21.10
2022-10-17T13:58:58.890Z,20.99
2022-10-17T14:01:28.025Z,21.19
2022-10-17T14:04:07.942Z,20.84
2022-10-17T14:06:45.028Z,20.60
2022-10-17T14:09:25.368Z,20.50
2022-10-17T14:12:07.432Z,20.58
2022-10-17T14:14:46.398Z,20.44
2022-10-17T14:17:26.663Z,20.73
2022-10-17T14:20:14.180Z,20.52
2022-10-17T14:22:47.276Z,20.58
2022-10-17T14:25:38.359Z,20.50
2022-10-17T14:28:11.180Z,20.59
2022-10-17T14:30:59.106Z,20.35
2022-10-17T14:33:30.961Z,20.17
2022-10-17T14:35:59.638Z,20.32
2022-10-17T14:38:28.003Z,20.04
2022-10-17T14:41:23.566Z,19.81
2022-10-17T14:43:56.983Z,20.08
2022-10-17T14:46:24.603Z,20.03
2022-10-17T14:48:53.947Z,19.95
2022-10-17T14:51:21.002Z,20.03
2022-10-17T14:54:19.221Z,20.05
2022-10-17T14:56:51.364Z,20.00
2022-10-17T14:59:25.603Z,20.05
2022-10-17T15:02:02.950Z,19.91
2022-10-17T15:04:29.448Z,19.73
2022-10-17T15:06:56.075Z,19.66
2022-10-17T15:09:22.705Z,19.60
2022-10-17T15:11:49.465Z,19.63
2022-10-17T15:14:15.987Z,19.49
2022-10-17T15:16:42.652Z,19.52
2022-10-17T15:19:10.220Z,19.63
2022-10-17T15:21:41.929Z,19.67
2022-10-17T15:24:11.607Z,19.85
2022-10-17T15:26:38.179Z,19.77
2022-10-17T15:29:04.880Z,19.43
2022-10-17T15:31:31.688Z,19.62
2022-10-17T15:33:58.227Z,19.82
2022-10-17T15:36:26.706Z,19.90
2022-10-17T15:38:56.488Z,19.95
2022-10-17T15:41:26.064Z,19.20
2022-10-17T15:43:52.942Z,19.67
2022-10-17T15:46:22.859Z,19.83
2022-10-17T15:48:50.124Z,19.69
2022-10-17T15:51:17.325Z,19.66
2022-10-17T15:53:44.154Z,19.59
2022-10-17T15:56:41.141Z,19.57
2022-10-17T15:59:17.142Z,19.50
2022-10-17T16:01:44.492Z,19.41
2022-10-17T16:04:12.640Z,19.38
2022-10-17T16:06:39.633Z,19.29
2022-10-17T16:09:06.150Z,19.14
2022-10-17T16:11:36.123Z,19.07
2022-10-17T16:14:05.776Z,18.62
2022-10-17T16:16:32.542Z,18.84
2022-10-17T16:18:59.064Z,18.87
2022-10-17T16:24:01.269Z,18.87
2022-10-17T16:26:28.860Z,18.85
2022-10-17T16:28:55.666Z,18.88
2022-10-17T16:31:28.904Z,18.95
2022-10-17T16:33:57.472Z,18.98
2022-10-17T16:36:24.379Z,19.00
2022-10-17T16:38:51.576Z,18.74
2022-10-17T16:41:25.038Z,19.01
2022-10-17T16:43:54.515Z,18.81
2022-10-17T16:46:21.838Z,19.03
2022-10-17T16:48:49.026Z,19.01
2022-10-17T16:51:18.419Z,19.01
2022-10-17T16:53:46.568Z,18.96
2022-10-17T16:56:15.983Z,18.87
2022-10-17T16:58:42.797Z,18.79
2022-10-17T17:01:12.575Z,18.65
2022-10-17T17:03:42.249Z,18.35
2022-10-17T17:06:12.683Z,18.28
2022-10-17T17:08:39.607Z,18.04
2022-10-17T17:11:07.716Z,17.71
2022-10-17T17:13:34.791Z,17.94
2022-10-17T17:16:28.590Z,17.93
2022-10-17T17:19:01.631Z,17.91
2022-10-17T17:21:30.187Z,17.82
2022-10-17T17:23:58.738Z,17.84
2022-10-17T17:26:27.901Z,17.81
2022-10-17T17:28:56.692Z,17.79
2022-10-17T17:31:25.703Z,17.71
2022-10-17T17:33:53.340Z,17.71
2022-10-17T17:36:23.014Z,17.68
2022-10-17T17:38:51.149Z,17.37
2022-10-17T17:41:19.836Z,17.43
2022-10-17T17:43:47.682Z,17.33
2022-10-17T17:46:17.265Z,17.37
2022-10-17T17:48:46.402Z,17.25
2022-10-17T17:51:16.170Z,17.07
2022-10-17T17:53:42.976Z,17.03
2022-10-17T17:56:18.539Z,17.04
2022-10-17T17:58:46.921Z,16.84
2022-10-17T18:01:19.204Z,16.99
2022-10-17T18:03:47.059Z,17.02
2022-10-17T18:06:14.007Z,17.04
2022-10-17T18:08:44.929Z,17.04
2022-10-17T18:11:12.291Z,16.87
2022-10-17T18:13:39.494Z,16.73
2022-10-17T18:16:07.053Z,16.89
2022-10-17T18:18:33.660Z,16.98
2022-10-17T18:21:01.484Z,16.86
2022-10-17T18:23:28.207Z,16.82
2022-10-17T18:25:56.974Z,16.84
2022-10-17T18:28:24.355Z,16.85
2022-10-17T18:30:51.163Z,16.90
2022-10-17T18:33:18.097Z,16.61
2022-10-17T18:35:44.841Z,16.21
2022-10-17T18:38:11.544Z,16.19
2022-10-17T18:40:38.557Z,16.24
2022-10-17T18:43:06.907Z,15.79
2022-10-17T18:45:33.641Z,16.01
2022-10-17T18:48:00.296Z,16.19
2022-10-17T18:50:26.929Z,15.94
2022-10-17T18:52:53.689Z,15.79
2022-10-17T18:55:20.301Z,15.78
2022-10-17T18:57:47.893Z,15.72
2022-10-17T19:00:15.255Z,15.79
2022-10-17T19:02:42.553Z,15.72
2022-10-17T19:05:09.293Z,15.77
2022-10-17T19:07:35.931Z,15.50
2022-10-17T19:10:02.719Z,15.36
2022-10-17T19:12:29.353Z,15.16
2022-10-17T19:14:55.903Z,15.22
2022-10-17T19:17:22.586Z,15.27
2022-10-17T19:19:49.180Z,15.06
2022-10-17T19:22:16.003Z,14.99
2022-10-17T19:24:42.578Z,15.22
2022-10-17T19:27:09.149Z,15.10
2022-10-17T19:29:35.670Z,14.82
2022-10-17T19:32:02.398Z,14.96
2022-10-17T19:34:29.584Z,14.91
2022-10-17T19:36:56.165Z,14.85
2022-10-17T19:39:24.279Z,14.95
2022-10-17T19:41:51.821Z,14.84
2022-10-17T19:44:18.626Z,14.93
2022-10-17T19:46:45.592Z,15.01
2022-10-17T19:49:12.868Z,14.65
2022-10-17T19:51:39.691Z,14.38
2022-10-17T19:54:06.320Z,14.53
2022-10-17T19:56:35.513Z,14.61
2022-10-17T19:59:02.240Z,14.59
2022-10-17T20:01:32.061Z,14.68
2022-10-17T20:03:58.648Z,14.86
2022-10-17T20:06:25.970Z,14.80
2022-10-17T20:08:52.839Z,14.98
2022-10-17T20:11:27.107Z,14.98
2022-10-17T20:13:55.611Z,14.99
2022-10-17T20:16:25.069Z,14.93
2022-10-17T20:18:56.497Z,14.85
2022-10-17T20:21:26.753Z,14.81
2022-10-17T20:23:54.366Z,14.74
2022-10-17T20:26:37.738Z,15.01
2022-10-17T20:29:07.772Z,15.08
2022-10-17T20:31:34.829Z,14.93
2022-10-17T20:34:01.585Z,15.01
2022-10-17T20:36:28.181Z,15.06
2022-10-17T20:38:56.693Z,15.11
2022-10-17T20:41:24.698Z,14.90
2022-10-17T20:43:52.837Z,14.73
2022-10-17T20:46:35.815Z,14.85
2022-10-17T20:49:06.845Z,14.73
2022-10-17T20:51:35.438Z,14.83
2022-10-17T20:54:02.426Z,14.86
2022-10-17T20:56:30.666Z,14.77
2022-10-17T20:59:04.372Z,14.88
2022-10-17T21:01:33.554Z,14.89
2022-10-17T21:04:21.470Z,14.94
2022-10-17T21:06:48.839Z,14.95
2022-10-17T21:09:15.449Z,14.98
2022-10-17T21:11:42.104Z,14.99
2022-10-17T21:14:10.498Z,15.00
2022-10-17T21:16:38.881Z,14.96
2022-10-17T21:19:06.015Z,15.00
2022-10-17T21:21:36.284Z,14.99
2022-10-17T21:24:05.852Z,14.97
2022-10-17T21:26:34.212Z,14.88
2022-10-17T21:29:00.816Z,14.99
2022-10-17T21:31:28.046Z,14.72
2022-10-17T21:33:59.387Z,14.96
2022-10-17T21:36:27.898Z,14.93
2022-10-17T21:38:56.962Z,14.84
2022-10-17T21:41:28.647Z,14.83
2022-10-17T21:43:58.273Z,14.73
2022-10-17T21:46:25.496Z,14.83
2022-10-17T21:48:53.100Z,14.88
2022-10-17T21:51:25.132Z,14.80
2022-10-17T21:53:54.623Z,14.84
2022-10-17T21:56:23.525Z,14.92
2022-10-17T21:58:51.211Z,14.91
2022-10-17T22:01:27.213Z,14.91
2022-10-17T22:03:56.856Z,14.85
2022-10-17T22:06:39.231Z,14.82
2022-10-17T22:09:17.040Z,14.74
2022-10-17T22:11:56.734Z,14.45
2022-10-17T22:14:27.486Z,14.75
2022-10-17T22:16:54.827Z,14.79
2022-10-17T22:19:25.187Z,14.78
2022-10-17T22:21:52.239Z,14.82
2022-10-17T22:26:48.085Z,14.82
2022-10-17T22:29:15.475Z,14.78
2022-10-17T22:31:42.647Z,14.79
2022-10-17T22:34:11.998Z,14.96
2022-10-17T22:36:38.628Z,14.99
2022-10-17T22:39:05.181Z,15.01
2022-10-17T22:41:31.872Z,15.02
2022-10-17T22:43:58.411Z,15.04
2022-10-17T22:46:25.475Z,15.04
2022-10-17T22:48:51.975Z,15.00
2022-10-17T22:51:18.807Z,14.99
2022-10-17T22:53:45.384Z,14.98
2022-10-17T22:56:17.332Z,14.97
2022-10-17T22:58:44.536Z,14.80
2022-10-17T23:01:17.726Z,14.91
2022-10-17T23:03:44.574Z,14.88
2022-10-17T23:06:11.575Z,14.97
2022-10-17T23:08:38.754Z,15.01
2022-10-17T23:11:06.208Z,14.98
2022-10-17T23:13:33.026Z,15.02
2022-10-17T23:15:59.795Z,15.02
2022-10-17T23:18:26.601Z,14.92
2022-10-17T23:20:53.565Z,15.12
2022-10-17T23:23:20.740Z,15.19
2022-10-17T23:25:47.322Z,15.17
2022-10-17T23:28:14.160Z,15.12
2022-10-17T23:30:41.099Z,15.07
2022-10-17T23:33:08.067Z,14.98
2022-10-17T23:35:35.516Z,14.81
2022-10-17T23:38:02.186Z,15.04
2022-10-17T23:40:29.739Z,15.04
2022-10-17T23:42:56.617Z,15.02
2022-10-17T23:45:23.199Z,15.09
2022-10-17T23:47:49.831Z,15.12
2022-10-17T23:50:16.481Z,15.08
2022-10-17T23:52:43.514Z,15.05
2022-10-17T23:55:10.379Z,15.08
2022-10-17T23:57:37.072Z,15.09
